sensor_id;sensor_type;location;lat;lon;timestamp;pressure;altitude;pressure_sealevel;temperature;humidity
1480;BME280;732;51.698;4.886;2023-03-22T00:00:40;100983.38;;;4.58;74.57
1480;BME280;732;51.698;4.886;2023-03-22T00:03:09;100967.25;;;4.40;74.78
1480;BME280;732;51.698;4.886;2023-03-22T00:05:38;101027.28;;;4.82;74.55
1480;BME280;732;51.698;4.886;2023-03-22T00:08:07;101081.28;;;5.12;74.93
1480;BME280;732;51.698;4.886;2023-03-22T00:10:37;101026.88;;;4.67;74.78
1480;BME280;732;51.698;4.886;2023-03-22T00:13:09;101078.63;;;4.93;76.20
1480;BME280;732;51.698;4.886;2023-03-22T00:15:41;101066.31;;;4.92;75.71
1480;BME280;732;51.698;4.886;2023-03-22T00:18:13;101025.75;;;4.70;75.35
1480;BME280;732;51.698;4.886;2023-03-22T00:20:47;100956.19;;;4.25;74.94
1480;BME280;732;51.698;4.886;2023-03-22T00:23:18;101072.34;;;4.94;75.36
1480;BME280;732;51.698;4.886;2023-03-22T00:25:48;101058.75;;;4.97;75.29
1480;BME280;732;51.698;4.886;2023-03-22T00:28:19;101064.22;;;4.95;75.55
1480;BME280;732;51.698;4.886;2023-03-22T00:30:52;100934.78;;;4.17;75.59
1480;BME280;732;51.698;4.886;2023-03-22T00:33:26;101057.22;;;4.94;75.64
1480;BME280;732;51.698;4.886;2023-03-22T00:35:59;100972.84;;;4.37;75.38
1480;BME280;732;51.698;4.886;2023-03-22T00:38:28;101005.72;;;4.66;75.23
1480;BME280;732;51.698;4.886;2023-03-22T00:41:13;100972.19;;;4.55;75.14
1480;BME280;732;51.698;4.886;2023-03-22T00:43:46;100873.31;;;3.92;74.57
1480;BME280;732;51.698;4.886;2023-03-22T00:46:16;100951.72;;;4.46;74.91
1480;BME280;732;51.698;4.886;2023-03-22T00:48:46;100984.75;;;4.63;74.64
1480;BME280;732;51.698;4.886;2023-03-22T00:51:16;101027.56;;;4.89;75.52
1480;BME280;732;51.698;4.886;2023-03-22T00:53:47;100990.75;;;4.65;75.35
1480;BME280;732;51.698;4.886;2023-03-22T00:56:19;100947.38;;;4.35;75.99
1480;BME280;732;51.698;4.886;2023-03-22T00:59:11;100999.16;;;4.70;76.38
1480;BME280;732;51.698;4.886;2023-03-22T01:01:40;101004.19;;;4.73;76.12
1480;BME280;732;51.698;4.886;2023-03-22T01:04:09;101003.63;;;4.69;76.19
1480;BME280;732;51.698;4.886;2023-03-22T01:06:43;100987.13;;;4.66;76.68
1480;BME280;732;51.698;4.886;2023-03-22T01:09:13;100985.72;;;4.62;76.40
1480;BME280;732;51.698;4.886;2023-03-22T01:11:43;100976.59;;;4.35;77.46
1480;BME280;732;51.698;4.886;2023-03-22T01:14:13;100980.81;;;4.47;77.82
1480;BME280;732;51.698;4.886;2023-03-22T01:16:42;100847.97;;;3.69;77.81
1480;BME280;732;51.698;4.886;2023-03-22T01:19:10;100939.41;;;4.35;77.73
1480;BME280;732;51.698;4.886;2023-03-22T01:21:39;100843.81;;;3.96;77.84
1480;BME280;732;51.698;4.886;2023-03-22T01:24:08;100960.84;;;4.72;78.34
1480;BME280;732;51.698;4.886;2023-03-22T01:26:36;100822.41;;;3.87;78.10
1480;BME280;732;51.698;4.886;2023-03-22T01:29:06;100950.47;;;4.89;78.03
1480;BME280;732;51.698;4.886;2023-03-22T01:31:39;100920.81;;;4.84;78.11
1480;BME280;732;51.698;4.886;2023-03-22T01:34:10;100909.19;;;4.85;77.50
1480;BME280;732;51.698;4.886;2023-03-22T01:36:39;100775.34;;;3.99;77.94
1480;BME280;732;51.698;4.886;2023-03-22T01:39:08;100875.25;;;4.59;78.12
1480;BME280;732;51.698;4.886;2023-03-22T01:41:38;100928.63;;;4.95;78.31
1480;BME280;732;51.698;4.886;2023-03-22T01:44:17;100805.38;;;4.09;78.32
1480;BME280;732;51.698;4.886;2023-03-22T01:46:50;100808.03;;;4.19;78.74
1480;BME280;732;51.698;4.886;2023-03-22T01:49:25;100846.56;;;4.63;78.92
1480;BME280;732;51.698;4.886;2023-03-22T01:51:58;100909.38;;;5.21;78.70
1480;BME280;732;51.698;4.886;2023-03-22T01:54:51;100879.03;;;5.04;79.54
1480;BME280;732;51.698;4.886;2023-03-22T01:57:33;100851.09;;;5.00;79.95
1480;BME280;732;51.698;4.886;2023-03-22T02:00:12;100867.63;;;5.21;80.11
1480;BME280;732;51.698;4.886;2023-03-22T02:03:20;100726.47;;;4.49;79.82
1480;BME280;732;51.698;4.886;2023-03-22T02:05:53;100754.50;;;4.71;80.74
1480;BME280;732;51.698;4.886;2023-03-22T02:08:31;100810.84;;;5.13;80.60
1480;BME280;732;51.698;4.886;2023-03-22T02:11:06;100865.38;;;5.54;80.57
1480;BME280;732;51.698;4.886;2023-03-22T02:13:54;100883.72;;;5.76;80.48
1480;BME280;732;51.698;4.886;2023-03-22T02:17:06;100825.25;;;5.66;79.75
1480;BME280;732;51.698;4.886;2023-03-22T02:20:44;100854.13;;;5.97;79.62
1480;BME280;732;51.698;4.886;2023-03-22T02:30:11;100719.97;;;5.17;80.46
1480;BME280;732;51.698;4.886;2023-03-22T02:33:12;100875.69;;;6.22;80.26
1480;BME280;732;51.698;4.886;2023-03-22T02:39:16;100861.75;;;6.28;79.89
1480;BME280;732;51.698;4.886;2023-03-22T02:42:16;100831.78;;;6.26;79.55
1480;BME280;732;51.698;4.886;2023-03-22T02:44:58;100819.44;;;6.25;78.82
1480;BME280;732;51.698;4.886;2023-03-22T02:47:37;100845.78;;;6.46;78.93
1480;BME280;732;51.698;4.886;2023-03-22T02:50:13;100840.88;;;6.59;78.37
1480;BME280;732;51.698;4.886;2023-03-22T02:52:48;100836.78;;;6.47;78.55
1480;BME280;732;51.698;4.886;2023-03-22T02:55:27;100836.28;;;6.51;78.89
1480;BME280;732;51.698;4.886;2023-03-22T02:58:05;100793.69;;;6.33;78.20
1480;BME280;732;51.698;4.886;2023-03-22T03:00:38;100829.59;;;6.65;77.82
1480;BME280;732;51.698;4.886;2023-03-22T03:03:11;100839.56;;;6.63;78.35
1480;BME280;732;51.698;4.886;2023-03-22T03:05:47;100829.88;;;6.62;78.04
1480;BME280;732;51.698;4.886;2023-03-22T03:08:19;100834.59;;;6.68;77.46
1480;BME280;732;51.698;4.886;2023-03-22T03:10:53;100767.13;;;6.24;77.58
1480;BME280;732;51.698;4.886;2023-03-22T03:13:22;100792.81;;;6.33;77.61
1480;BME280;732;51.698;4.886;2023-03-22T03:15:53;100764.72;;;6.12;77.75
1480;BME280;732;51.698;4.886;2023-03-22T03:18:46;100837.19;;;6.60;77.02
1480;BME280;732;51.698;4.886;2023-03-22T03:21:28;100809.91;;;6.40;77.20
1480;BME280;732;51.698;4.886;2023-03-22T03:24:18;100839.06;;;6.24;78.29
1480;BME280;732;51.698;4.886;2023-03-22T03:26:55;100838.38;;;6.22;78.22
1480;BME280;732;51.698;4.886;2023-03-22T03:29:34;100836.72;;;6.20;78.66
1480;BME280;732;51.698;4.886;2023-03-22T03:32:10;100834.34;;;6.17;78.59
1480;BME280;732;51.698;4.886;2023-03-22T03:34:47;100834.19;;;6.19;78.53
1480;BME280;732;51.698;4.886;2023-03-22T03:37:21;100762.09;;;5.76;78.31
1480;BME280;732;51.698;4.886;2023-03-22T03:39:58;100765.47;;;5.78;78.21
1480;BME280;732;51.698;4.886;2023-03-22T03:42:36;100826.19;;;6.19;78.25
1480;BME280;732;51.698;4.886;2023-03-22T03:45:07;100824.69;;;6.16;78.34
1480;BME280;732;51.698;4.886;2023-03-22T03:47:42;100816.56;;;6.00;78.85
1480;BME280;732;51.698;4.886;2023-03-22T03:50:13;100835.50;;;6.15;78.54
1480;BME280;732;51.698;4.886;2023-03-22T03:52:50;100832.38;;;6.19;77.95
1480;BME280;732;51.698;4.886;2023-03-22T03:55:20;100714.31;;;5.48;78.13
1480;BME280;732;51.698;4.886;2023-03-22T03:57:51;100822.44;;;6.03;78.50
1480;BME280;732;51.698;4.886;2023-03-22T04:00:19;100827.50;;;5.97;78.81
1480;BME280;732;51.698;4.886;2023-03-22T04:03:11;100818.31;;;5.91;78.72
1480;BME280;732;51.698;4.886;2023-03-22T04:05:54;100806.31;;;5.87;78.47
1480;BME280;732;51.698;4.886;2023-03-22T04:08:22;100825.53;;;5.99;78.87
1480;BME280;732;51.698;4.886;2023-03-22T04:10:51;100820.28;;;5.89;78.84
1480;BME280;732;51.698;4.886;2023-03-22T04:13:22;100821.44;;;5.86;78.90
1480;BME280;732;51.698;4.886;2023-03-22T04:15:54;100813.38;;;5.96;78.90
1480;BME280;732;51.698;4.886;2023-03-22T04:18:23;100802.63;;;5.88;78.99
1480;BME280;732;51.698;4.886;2023-03-22T04:20:53;100810.25;;;5.83;79.07
1480;BME280;732;51.698;4.886;2023-03-22T04:23:24;100796.28;;;5.81;78.37
1480;BME280;732;51.698;4.886;2023-03-22T04:25:52;100818.84;;;5.95;78.46
1480;BME280;732;51.698;4.886;2023-03-22T04:28:33;100813.44;;;5.86;78.64
1480;BME280;732;51.698;4.886;2023-03-22T04:31:02;100770.25;;;5.75;78.64
1480;BME280;732;51.698;4.886;2023-03-22T04:33:50;100781.56;;;5.95;78.48
1480;BME280;732;51.698;4.886;2023-03-22T04:36:30;100806.56;;;6.20;77.74
1480;BME280;732;51.698;4.886;2023-03-22T04:39:17;100777.59;;;5.99;77.72
1480;BME280;732;51.698;4.886;2023-03-22T04:41:55;100806.19;;;6.15;77.59
1480;BME280;732;51.698;4.886;2023-03-22T04:44:25;100793.94;;;6.22;77.32
1480;BME280;732;51.698;4.886;2023-03-22T04:46:54;100804.59;;;6.04;77.96
1480;BME280;732;51.698;4.886;2023-03-22T04:49:23;100793.03;;;6.13;77.44
1480;BME280;732;51.698;4.886;2023-03-22T04:51:54;100751.66;;;5.83;77.42
1480;BME280;732;51.698;4.886;2023-03-22T04:54:30;100805.13;;;6.08;77.79
1480;BME280;732;51.698;4.886;2023-03-22T04:57:00;100791.81;;;6.08;77.11
1480;BME280;732;51.698;4.886;2023-03-22T04:59:34;100790.13;;;6.07;77.11
1480;BME280;732;51.698;4.886;2023-03-22T05:02:03;100789.78;;;6.01;77.34
1480;BME280;732;51.698;4.886;2023-03-22T05:04:39;100784.75;;;5.98;77.44
1480;BME280;732;51.698;4.886;2023-03-22T05:07:27;100790.38;;;5.95;77.53
1480;BME280;732;51.698;4.886;2023-03-22T05:09:58;100775.72;;;5.91;77.20
1480;BME280;732;51.698;4.886;2023-03-22T05:12:27;100771.69;;;5.69;77.27
1480;BME280;732;51.698;4.886;2023-03-22T05:15:02;100762.03;;;5.68;77.61
1480;BME280;732;51.698;4.886;2023-03-22T05:17:35;100781.28;;;5.80;77.38
1480;BME280;732;51.698;4.886;2023-03-22T05:20:05;100782.88;;;5.91;77.17
1480;BME280;732;51.698;4.886;2023-03-22T05:22:38;100731.56;;;5.62;76.66
1480;BME280;732;51.698;4.886;2023-03-22T05:25:09;100769.69;;;5.89;76.98
1480;BME280;732;51.698;4.886;2023-03-22T05:27:42;100746.59;;;5.53;77.06
1480;BME280;732;51.698;4.886;2023-03-22T05:30:31;100742.72;;;5.66;76.72
1480;BME280;732;51.698;4.886;2023-03-22T05:33:10;100757.25;;;5.53;77.39
1480;BME280;732;51.698;4.886;2023-03-22T05:35:43;100773.91;;;5.74;77.10
1480;BME280;732;51.698;4.886;2023-03-22T05:38:14;100774.06;;;5.72;77.15
1480;BME280;732;51.698;4.886;2023-03-22T05:40:48;100775.19;;;5.87;76.71
1480;BME280;732;51.698;4.886;2023-03-22T05:43:17;100773.94;;;5.82;76.52
1480;BME280;732;51.698;4.886;2023-03-22T05:45:49;100750.09;;;5.54;76.97
1480;BME280;732;51.698;4.886;2023-03-22T05:48:34;100737.78;;;5.53;77.04
1480;BME280;732;51.698;4.886;2023-03-22T05:51:05;100776.41;;;5.75;76.84
1480;BME280;732;51.698;4.886;2023-03-22T05:53:35;100743.25;;;5.51;76.40
1480;BME280;732;51.698;4.886;2023-03-22T05:56:08;100745.69;;;5.63;76.70
1480;BME280;732;51.698;4.886;2023-03-22T05:58:39;100747.34;;;5.64;76.43
1480;BME280;732;51.698;4.886;2023-03-22T06:01:13;100766.38;;;5.69;76.76
1480;BME280;732;51.698;4.886;2023-03-22T06:03:45;100765.22;;;5.71;76.23
1480;BME280;732;51.698;4.886;2023-03-22T06:06:40;100781.56;;;5.77;76.19
1480;BME280;732;51.698;4.886;2023-03-22T06:09:15;100752.00;;;5.62;76.23
1480;BME280;732;51.698;4.886;2023-03-22T06:11:48;100763.53;;;5.70;76.36
1480;BME280;732;51.698;4.886;2023-03-22T06:14:18;100763.41;;;5.72;76.03
1480;BME280;732;51.698;4.886;2023-03-22T06:17:01;100763.19;;;5.83;75.85
1480;BME280;732;51.698;4.886;2023-03-22T06:19:29;100764.84;;;5.84;75.86
1480;BME280;732;51.698;4.886;2023-03-22T06:22:01;100745.38;;;5.84;75.61
1480;BME280;732;51.698;4.886;2023-03-22T06:24:32;100757.91;;;6.18;75.18
1480;BME280;732;51.698;4.886;2023-03-22T06:27:01;100729.31;;;6.20;74.61
1480;BME280;732;51.698;4.886;2023-03-22T06:29:30;100732.41;;;6.33;74.02
1480;BME280;732;51.698;4.886;2023-03-22T06:32:03;100764.16;;;6.79;73.10
1480;BME280;732;51.698;4.886;2023-03-22T06:34:32;100761.22;;;6.99;72.23
1480;BME280;732;51.698;4.886;2023-03-22T06:37:01;100764.59;;;7.09;71.71
1480;BME280;732;51.698;4.886;2023-03-22T06:39:33;100769.59;;;7.04;71.63
1480;BME280;732;51.698;4.886;2023-03-22T06:42:02;100760.56;;;7.05;71.18
1480;BME280;732;51.698;4.886;2023-03-22T06:44:31;100775.88;;;6.87;71.82
1480;BME280;732;51.698;4.886;2023-03-22T06:47:20;100775.88;;;6.95;71.71
1480;BME280;732;51.698;4.886;2023-03-22T06:49:57;100761.19;;;6.91;71.74
1480;BME280;732;51.698;4.886;2023-03-22T06:52:40;100770.16;;;6.81;71.43
1480;BME280;732;51.698;4.886;2023-03-22T06:55:09;100763.63;;;6.76;72.00
1480;BME280;732;51.698;4.886;2023-03-22T06:57:38;100779.13;;;6.72;72.10
1480;BME280;732;51.698;4.886;2023-03-22T07:00:10;100772.63;;;6.75;72.10
1480;BME280;732;51.698;4.886;2023-03-22T07:02:40;100779.19;;;6.89;71.47
1480;BME280;732;51.698;4.886;2023-03-22T07:05:31;100774.19;;;6.86;71.73
1480;BME280;732;51.698;4.886;2023-03-22T07:07:59;100762.78;;;6.75;71.47
1480;BME280;732;51.698;4.886;2023-03-22T07:10:28;100746.66;;;6.77;71.85
1480;BME280;732;51.698;4.886;2023-03-22T07:12:57;100776.97;;;7.19;70.82
1480;BME280;732;51.698;4.886;2023-03-22T07:15:26;100756.91;;;6.98;70.44
1480;BME280;732;51.698;4.886;2023-03-22T07:18:19;100776.97;;;7.19;70.14
1480;BME280;732;51.698;4.886;2023-03-22T07:20:47;100773.41;;;7.02;70.39
1480;BME280;732;51.698;4.886;2023-03-22T07:23:16;100775.56;;;6.98;70.73
1480;BME280;732;51.698;4.886;2023-03-22T07:25:49;100774.06;;;6.95;70.81
1480;BME280;732;51.698;4.886;2023-03-22T07:28:26;100759.56;;;7.06;71.15
1480;BME280;732;51.698;4.886;2023-03-22T07:31:00;100765.63;;;7.25;70.08
1480;BME280;732;51.698;4.886;2023-03-22T07:33:36;100775.53;;;7.41;69.53
1480;BME280;732;51.698;4.886;2023-03-22T07:36:07;100761.88;;;7.60;69.35
1480;BME280;732;51.698;4.886;2023-03-22T07:38:37;100772.91;;;7.90;69.23
1480;BME280;732;51.698;4.886;2023-03-22T07:41:10;100769.25;;;7.91;68.37
1480;BME280;732;51.698;4.886;2023-03-22T07:43:53;100763.06;;;7.82;68.37
1480;BME280;732;51.698;4.886;2023-03-22T07:46:45;100768.72;;;7.71;68.39
1480;BME280;732;51.698;4.886;2023-03-22T07:49:22;100766.06;;;7.63;69.17
1480;BME280;732;51.698;4.886;2023-03-22T07:52:10;100763.03;;;7.66;68.26
1480;BME280;732;51.698;4.886;2023-03-22T07:54:39;100766.06;;;7.63;68.49
1480;BME280;732;51.698;4.886;2023-03-22T07:57:08;100755.72;;;7.68;68.10
1480;BME280;732;51.698;4.886;2023-03-22T07:59:46;100780.78;;;8.00;68.32
1480;BME280;732;51.698;4.886;2023-03-22T08:02:14;100764.25;;;8.05;67.77
1480;BME280;732;51.698;4.886;2023-03-22T08:04:48;100784.44;;;8.07;67.13
1480;BME280;732;51.698;4.886;2023-03-22T08:07:42;100771.25;;;8.22;66.70
1480;BME280;732;51.698;4.886;2023-03-22T08:10:12;100779.91;;;8.41;67.08
1480;BME280;732;51.698;4.886;2023-03-22T08:12:40;100750.22;;;8.19;66.44
1480;BME280;732;51.698;4.886;2023-03-22T08:15:19;100766.03;;;8.45;65.90
1480;BME280;732;51.698;4.886;2023-03-22T08:17:56;100730.13;;;8.32;65.78
1480;BME280;732;51.698;4.886;2023-03-22T08:20:33;100758.31;;;8.51;65.24
1480;BME280;732;51.698;4.886;2023-03-22T08:23:06;100772.19;;;8.54;65.53
1480;BME280;732;51.698;4.886;2023-03-22T08:25:56;100767.84;;;8.53;65.04
1480;BME280;732;51.698;4.886;2023-03-22T08:28:25;100778.38;;;8.55;65.12
1480;BME280;732;51.698;4.886;2023-03-22T08:30:53;100787.28;;;8.30;65.98
1480;BME280;732;51.698;4.886;2023-03-22T08:33:22;100756.53;;;8.35;65.60
1480;BME280;732;51.698;4.886;2023-03-22T08:36:05;100756.56;;;8.26;64.85
1480;BME280;732;51.698;4.886;2023-03-22T08:38:41;100751.78;;;8.53;65.26
1480;BME280;732;51.698;4.886;2023-03-22T08:41:13;100771.31;;;8.62;64.41
1480;BME280;732;51.698;4.886;2023-03-22T08:43:43;100778.72;;;8.52;64.74
1480;BME280;732;51.698;4.886;2023-03-22T08:46:11;100760.50;;;8.55;64.18
1480;BME280;732;51.698;4.886;2023-03-22T08:48:40;100758.06;;;8.77;64.69
1480;BME280;732;51.698;4.886;2023-03-22T08:51:27;100777.28;;;8.81;64.08
1480;BME280;732;51.698;4.886;2023-03-22T08:54:17;100766.63;;;8.72;64.46
1480;BME280;732;51.698;4.886;2023-03-22T08:56:52;100774.50;;;8.66;65.14
1480;BME280;732;51.698;4.886;2023-03-22T08:59:34;100736.00;;;8.27;66.25
1480;BME280;732;51.698;4.886;2023-03-22T09:02:29;100746.22;;;8.15;66.74
1480;BME280;732;51.698;4.886;2023-03-22T09:04:58;100757.00;;;8.38;67.89
1480;BME280;732;51.698;4.886;2023-03-22T09:07:28;100753.34;;;8.31;67.70
1480;BME280;732;51.698;4.886;2023-03-22T09:10:15;100764.94;;;8.15;68.96
1480;BME280;732;51.698;4.886;2023-03-22T09:12:46;100763.25;;;7.97;68.26
1480;BME280;732;51.698;4.886;2023-03-22T09:15:15;100755.72;;;7.93;68.99
1480;BME280;732;51.698;4.886;2023-03-22T09:17:51;100705.47;;;7.63;68.08
1480;BME280;732;51.698;4.886;2023-03-22T09:20:20;100725.88;;;7.97;68.12
1480;BME280;732;51.698;4.886;2023-03-22T09:22:53;100773.09;;;8.05;68.53
1480;BME280;732;51.698;4.886;2023-03-22T09:25:21;100761.44;;;8.06;68.68
1480;BME280;732;51.698;4.886;2023-03-22T09:27:51;100762.41;;;8.13;68.54
1480;BME280;732;51.698;4.886;2023-03-22T09:30:20;100758.38;;;7.93;69.49
1480;BME280;732;51.698;4.886;2023-03-22T09:32:48;100764.38;;;7.95;69.69
1480;BME280;732;51.698;4.886;2023-03-22T09:35:17;100759.75;;;7.97;70.46
1480;BME280;732;51.698;4.886;2023-03-22T09:38:02;100748.06;;;8.06;70.37
1480;BME280;732;51.698;4.886;2023-03-22T09:40:32;100730.00;;;7.84;69.98
1480;BME280;732;51.698;4.886;2023-03-22T09:43:06;100765.38;;;7.61;71.72
1480;BME280;732;51.698;4.886;2023-03-22T09:45:38;100757.66;;;7.41;72.76
1480;BME280;732;51.698;4.886;2023-03-22T09:48:16;100730.94;;;7.25;73.46
1480;BME280;732;51.698;4.886;2023-03-22T09:50:48;100759.97;;;7.20;73.85
1480;BME280;732;51.698;4.886;2023-03-22T09:53:23;100711.56;;;7.06;74.15
1480;BME280;732;51.698;4.886;2023-03-22T09:55:58;100749.63;;;7.25;74.16
1480;BME280;732;51.698;4.886;2023-03-22T09:58:32;100761.16;;;7.25;74.40
1480;BME280;732;51.698;4.886;2023-03-22T10:01:10;100770.31;;;7.23;75.01
1480;BME280;732;51.698;4.886;2023-03-22T10:04:19;100761.47;;;7.22;75.77
1480;BME280;732;51.698;4.886;2023-03-22T10:07:01;100768.00;;;7.28;75.55
1480;BME280;732;51.698;4.886;2023-03-22T10:09:42;100768.00;;;7.28;75.07
1480;BME280;732;51.698;4.886;2023-03-22T10:12:18;100758.81;;;7.30;75.12
1480;BME280;732;51.698;4.886;2023-03-22T10:15:00;100764.47;;;7.19;75.72
1480;BME280;732;51.698;4.886;2023-03-22T10:17:31;100750.44;;;7.17;75.60
1480;BME280;732;51.698;4.886;2023-03-22T10:20:04;100760.13;;;7.26;75.61
1480;BME280;732;51.698;4.886;2023-03-22T10:22:39;100726.75;;;7.14;75.75
1480;BME280;732;51.698;4.886;2023-03-22T10:25:18;100762.19;;;7.41;75.21
1480;BME280;732;51.698;4.886;2023-03-22T10:27:49;100766.97;;;7.29;74.71
1480;BME280;732;51.698;4.886;2023-03-22T10:30:21;100744.31;;;7.41;75.37
1480;BME280;732;51.698;4.886;2023-03-22T10:32:54;100761.84;;;7.44;74.97
1480;BME280;732;51.698;4.886;2023-03-22T10:35:26;100756.84;;;7.41;75.23
1480;BME280;732;51.698;4.886;2023-03-22T10:37:58;100758.31;;;7.35;75.34
1480;BME280;732;51.698;4.886;2023-03-22T10:40:32;100726.91;;;7.12;76.00
1480;BME280;732;51.698;4.886;2023-03-22T10:43:05;100726.25;;;7.19;75.90
1480;BME280;732;51.698;4.886;2023-03-22T10:45:35;100722.63;;;7.28;76.38
1480;BME280;732;51.698;4.886;2023-03-22T10:48:09;100736.13;;;7.35;75.71
1480;BME280;732;51.698;4.886;2023-03-22T10:50:42;100728.16;;;7.43;76.30
1480;BME280;732;51.698;4.886;2023-03-22T10:53:20;100713.47;;;7.47;75.88
1480;BME280;732;51.698;4.886;2023-03-22T10:55:53;100746.00;;;7.84;75.36
1480;BME280;732;51.698;4.886;2023-03-22T10:58:25;100719.31;;;7.84;74.89
1480;BME280;732;51.698;4.886;2023-03-22T11:00:58;100731.84;;;8.00;74.09
1480;BME280;732;51.698;4.886;2023-03-22T11:03:30;100704.63;;;8.04;74.92
1480;BME280;732;51.698;4.886;2023-03-22T11:06:07;100743.75;;;8.61;73.81
1480;BME280;732;51.698;4.886;2023-03-22T11:08:43;100700.25;;;8.28;72.25
1480;BME280;732;51.698;4.886;2023-03-22T11:11:19;100721.75;;;8.43;73.00
1480;BME280;732;51.698;4.886;2023-03-22T11:14:00;100731.06;;;8.55;72.05
1480;BME280;732;51.698;4.886;2023-03-22T11:16:31;100704.91;;;8.34;72.22
1480;BME280;732;51.698;4.886;2023-03-22T11:19:14;100734.44;;;8.49;72.64
1480;BME280;732;51.698;4.886;2023-03-22T11:21:44;100736.31;;;8.40;72.06
1480;BME280;732;51.698;4.886;2023-03-22T11:24:13;100742.66;;;8.31;72.46
1480;BME280;732;51.698;4.886;2023-03-22T11:27:02;100734.63;;;8.31;72.44
1480;BME280;732;51.698;4.886;2023-03-22T11:29:41;100745.19;;;8.33;71.72
1480;BME280;732;51.698;4.886;2023-03-22T11:32:24;100713.97;;;8.17;72.26
1480;BME280;732;51.698;4.886;2023-03-22T11:35:04;100725.94;;;8.37;71.90
1480;BME280;732;51.698;4.886;2023-03-22T11:37:32;100727.97;;;8.35;72.28
1480;BME280;732;51.698;4.886;2023-03-22T11:40:14;100724.78;;;8.32;72.12
1480;BME280;732;51.698;4.886;2023-03-22T11:42:45;100734.06;;;8.52;71.88
1480;BME280;732;51.698;4.886;2023-03-22T11:45:17;100706.53;;;8.43;71.08
1480;BME280;732;51.698;4.886;2023-03-22T11:47:47;100734.03;;;8.69;70.92
1480;BME280;732;51.698;4.886;2023-03-22T11:50:26;100697.13;;;8.08;70.48
1480;BME280;732;51.698;4.886;2023-03-22T11:52:55;100738.16;;;8.32;71.63
1480;BME280;732;51.698;4.886;2023-03-22T11:55:24;100751.16;;;8.43;71.05
1480;BME280;732;51.698;4.886;2023-03-22T11:57:55;100751.69;;;8.30;70.92
1480;BME280;732;51.698;4.886;2023-03-22T12:00:27;100733.19;;;8.20;71.72
1480;BME280;732;51.698;4.886;2023-03-22T12:03:00;100736.97;;;8.42;71.30
1480;BME280;732;51.698;4.886;2023-03-22T12:05:32;100745.19;;;8.33;70.54
1480;BME280;732;51.698;4.886;2023-03-22T12:08:08;100731.03;;;7.99;71.31
1480;BME280;732;51.698;4.886;2023-03-22T12:10:41;100724.00;;;8.06;71.87
1480;BME280;732;51.698;4.886;2023-03-22T12:13:18;100730.69;;;8.10;71.71
1480;BME280;732;51.698;4.886;2023-03-22T12:15:53;100758.72;;;8.23;71.87
1480;BME280;732;51.698;4.886;2023-03-22T12:18:27;100727.50;;;8.07;71.38
1480;BME280;732;51.698;4.886;2023-03-22T12:20:58;100754.66;;;8.43;71.32
1480;BME280;732;51.698;4.886;2023-03-22T12:23:29;100741.81;;;8.39;71.34
1480;BME280;732;51.698;4.886;2023-03-22T12:26:02;100752.84;;;8.44;71.08
1480;BME280;732;51.698;4.886;2023-03-22T12:28:39;100751.66;;;8.38;71.33
1480;BME280;732;51.698;4.886;2023-03-22T12:31:13;100741.66;;;8.40;70.86
1480;BME280;732;51.698;4.886;2023-03-22T12:33:48;100740.34;;;8.36;71.35
1480;BME280;732;51.698;4.886;2023-03-22T12:36:22;100743.69;;;8.30;71.62
1480;BME280;732;51.698;4.886;2023-03-22T12:38:56;100729.16;;;8.16;71.95
1480;BME280;732;51.698;4.886;2023-03-22T12:41:31;100714.50;;;8.04;72.19
1480;BME280;732;51.698;4.886;2023-03-22T12:44:04;100730.66;;;8.27;72.15
1480;BME280;732;51.698;4.886;2023-03-22T12:46:47;100701.78;;;8.06;72.13
1480;BME280;732;51.698;4.886;2023-03-22T12:49:24;100717.09;;;8.37;71.45
1480;BME280;732;51.698;4.886;2023-03-22T12:52:04;100712.94;;;8.26;71.89
1480;BME280;732;51.698;4.886;2023-03-22T12:54:39;100729.94;;;8.41;71.20
1480;BME280;732;51.698;4.886;2023-03-22T12:57:09;100744.63;;;8.45;71.46
1480;BME280;732;51.698;4.886;2023-03-22T12:59:42;100732.94;;;8.55;71.34
1480;BME280;732;51.698;4.886;2023-03-22T13:02:15;100740.59;;;8.50;71.20
1480;BME280;732;51.698;4.886;2023-03-22T13:04:51;100732.09;;;8.46;71.11
1480;BME280;732;51.698;4.886;2023-03-22T13:07:39;100709.06;;;8.37;71.68
1480;BME280;732;51.698;4.886;2023-03-22T13:13:44;100731.91;;;8.56;71.22
1480;BME280;732;51.698;4.886;2023-03-22T13:16:22;100708.56;;;8.41;71.25
1480;BME280;732;51.698;4.886;2023-03-22T13:19:02;100709.88;;;8.45;71.51
1480;BME280;732;51.698;4.886;2023-03-22T13:21:47;100731.88;;;8.72;71.17
1480;BME280;732;51.698;4.886;2023-03-22T13:24:21;100705.31;;;8.62;70.50
1480;BME280;732;51.698;4.886;2023-03-22T13:26:52;100736.53;;;8.70;70.98
1480;BME280;732;51.698;4.886;2023-03-22T13:29:23;100733.50;;;8.73;70.88
1480;BME280;732;51.698;4.886;2023-03-22T13:31:57;100703.75;;;8.76;70.60
1480;BME280;732;51.698;4.886;2023-03-22T13:34:35;100736.47;;;8.87;71.30
1480;BME280;732;51.698;4.886;2023-03-22T13:37:09;100723.09;;;8.87;70.72
1480;BME280;732;51.698;4.886;2023-03-22T13:39:39;100737.41;;;9.02;70.45
1480;BME280;732;51.698;4.886;2023-03-22T13:42:18;100704.56;;;8.77;71.45
1480;BME280;732;51.698;4.886;2023-03-22T13:44:54;100705.16;;;8.56;72.13
1480;BME280;732;51.698;4.886;2023-03-22T13:47:34;100732.16;;;8.77;71.96
1480;BME280;732;51.698;4.886;2023-03-22T13:50:13;100687.31;;;8.40;73.14
1480;BME280;732;51.698;4.886;2023-03-22T13:52:52;100680.66;;;8.44;73.63
1480;BME280;732;51.698;4.886;2023-03-22T13:55:41;100700.66;;;8.56;72.93
1480;BME280;732;51.698;4.886;2023-03-22T13:58:36;100726.09;;;8.44;74.28
1480;BME280;732;51.698;4.886;2023-03-22T14:01:22;100701.22;;;8.35;74.17
1480;BME280;732;51.698;4.886;2023-03-22T14:03:58;100675.63;;;8.49;73.49
1480;BME280;732;51.698;4.886;2023-03-22T14:06:31;100694.06;;;8.67;72.79
1480;BME280;732;51.698;4.886;2023-03-22T14:09:11;100698.41;;;8.68;73.06
1480;BME280;732;51.698;4.886;2023-03-22T14:11:45;100700.84;;;8.55;73.51
1480;BME280;732;51.698;4.886;2023-03-22T14:14:20;100697.09;;;8.72;73.68
1480;BME280;732;51.698;4.886;2023-03-22T14:16:52;100682.94;;;8.55;74.00
1480;BME280;732;51.698;4.886;2023-03-22T14:19:29;100682.34;;;8.76;74.58
1480;BME280;732;51.698;4.886;2023-03-22T14:22:02;100700.16;;;8.92;74.05
1480;BME280;732;51.698;4.886;2023-03-22T14:24:31;100681.16;;;8.79;74.21
1480;BME280;732;51.698;4.886;2023-03-22T14:27:00;100704.63;;;8.69;74.89
1480;BME280;732;51.698;4.886;2023-03-22T14:29:40;100678.09;;;8.51;75.76